sensor_id;sensor_type;location;lat;lon;timestamp;pressure;altitude;pressure_sealevel;temperature;humidity
12757;BME280;31601;48.042;12.240;2023-04-03T00:01:04;96702.84;;;3.13;79.41
12757;BME280;31601;48.042;12.240;2023-04-03T00:03:31;96700.13;;;3.15;79.18
12757;BME280;31601;48.042;12.240;2023-04-03T00:05:59;96699.88;;;3.39;78.68
12757;BME280;31601;48.042;12.240;2023-04-03T00:08:25;96707.28;;;3.44;78.48
12757;BME280;31601;48.042;12.240;2023-04-03T00:10:52;96703.88;;;3.22;78.83
12757;BME280;31601;48.042;12.240;2023-04-03T00:13:19;96700.97;;;3.15;79.03
12757;BME280;31601;48.042;12.240;2023-04-03T00:15:45;96698.69;;;3.43;78.06
12757;BME280;31601;48.042;12.240;2023-04-03T00:18:12;96705.25;;;3.26;78.12
12757;BME280;31601;48.042;12.240;2023-04-03T00:20:38;96704.81;;;3.42;78.01
12757;BME280;31601;48.042;12.240;2023-04-03T00:23:06;96701.63;;;3.59;77.66
12757;BME280;31601;48.042;12.240;2023-04-03T00:25:33;96700.25;;;3.55;77.97
12757;BME280;31601;48.042;12.240;2023-04-03T00:28:00;96699.94;;;3.49;77.85
12757;BME280;31601;48.042;12.240;2023-04-03T00:30:26;96706.59;;;3.42;77.95
12757;BME280;31601;48.042;12.240;2023-04-03T00:32:53;96699.75;;;3.62;77.56
12757;BME280;31601;48.042;12.240;2023-04-03T00:35:21;96700.13;;;3.57;77.40
12757;BME280;31601;48.042;12.240;2023-04-03T00:37:50;96698.84;;;3.51;77.61
12757;BME280;31601;48.042;12.240;2023-04-03T00:40:18;96706.38;;;3.54;77.29
12757;BME280;31601;48.042;12.240;2023-04-03T00:42:47;96703.75;;;3.45;77.79
12757;BME280;31601;48.042;12.240;2023-04-03T00:45:31;96705.63;;;3.64;77.76
12757;BME280;31601;48.042;12.240;2023-04-03T00:47:59;96710.00;;;3.63;78.00
12757;BME280;31601;48.042;12.240;2023-04-03T00:50:27;96709.19;;;3.42;77.93
12757;BME280;31601;48.042;12.240;2023-04-03T00:52:55;96702.09;;;3.44;77.46
12757;BME280;31601;48.042;12.240;2023-04-03T00:55:24;96709.53;;;3.58;77.84
12757;BME280;31601;48.042;12.240;2023-04-03T00:57:51;96708.94;;;3.45;77.93
12757;BME280;31601;48.042;12.240;2023-04-03T01:00:20;96704.34;;;3.58;77.51
12757;BME280;31601;48.042;12.240;2023-04-03T01:02:47;96706.78;;;3.50;77.73
12757;BME280;31601;48.042;12.240;2023-04-03T01:05:16;96712.50;;;3.53;77.76
12757;BME280;31601;48.042;12.240;2023-04-03T01:07:43;96712.13;;;3.58;77.79
12757;BME280;31601;48.042;12.240;2023-04-03T01:10:12;96707.34;;;3.84;77.24
12757;BME280;31601;48.042;12.240;2023-04-03T01:12:44;96709.59;;;3.99;76.85
12757;BME280;31601;48.042;12.240;2023-04-03T01:15:13;96707.47;;;4.13;76.64
12757;BME280;31601;48.042;12.240;2023-04-03T01:17:41;96708.25;;;4.04;76.88
12757;BME280;31601;48.042;12.240;2023-04-03T01:23:22;96707.03;;;4.08;76.69
12757;BME280;31601;48.042;12.240;2023-04-03T01:25:52;96709.97;;;4.25;76.26
12757;BME280;31601;48.042;12.240;2023-04-03T01:28:23;96706.53;;;4.24;76.28
12757;BME280;31601;48.042;12.240;2023-04-03T01:30:56;96712.22;;;4.08;76.28
12757;BME280;31601;48.042;12.240;2023-04-03T01:33:26;96705.13;;;4.10;76.60
12757;BME280;31601;48.042;12.240;2023-04-03T01:35:52;96713.03;;;3.99;76.97
12757;BME280;31601;48.042;12.240;2023-04-03T01:38:19;96711.56;;;4.06;76.54
12757;BME280;31601;48.042;12.240;2023-04-03T01:40:45;96710.84;;;4.04;76.71
12757;BME280;31601;48.042;12.240;2023-04-03T01:43:12;96715.50;;;4.10;76.40
12757;BME280;31601;48.042;12.240;2023-04-03T01:45:38;96718.72;;;3.93;76.92
12757;BME280;31601;48.042;12.240;2023-04-03T01:48:05;96713.50;;;4.14;76.36
12757;BME280;31601;48.042;12.240;2023-04-03T01:50:34;96713.94;;;4.29;76.20
12757;BME280;31601;48.042;12.240;2023-04-03T01:53:00;96713.94;;;4.29;76.19
12757;BME280;31601;48.042;12.240;2023-04-03T01:55:27;96714.63;;;4.31;75.96
12757;BME280;31601;48.042;12.240;2023-04-03T01:57:53;96720.66;;;4.32;76.37
12757;BME280;31601;48.042;12.240;2023-04-03T02:00:20;96721.31;;;4.24;76.32
12757;BME280;31601;48.042;12.240;2023-04-03T02:02:46;96717.16;;;4.11;76.61
12757;BME280;31601;48.042;12.240;2023-04-03T02:05:13;96722.47;;;4.00;76.98
12757;BME280;31601;48.042;12.240;2023-04-03T02:07:41;96723.22;;;4.22;76.03
12757;BME280;31601;48.042;12.240;2023-04-03T02:10:10;96726.25;;;4.37;76.06
12757;BME280;31601;48.042;12.240;2023-04-03T02:12:37;96718.19;;;4.30;75.86
12757;BME280;31601;48.042;12.240;2023-04-03T02:15:05;96720.88;;;4.19;76.32
12757;BME280;31601;48.042;12.240;2023-04-03T02:17:31;96719.09;;;4.19;76.24
12757;BME280;31601;48.042;12.240;2023-04-03T02:19:58;96718.81;;;4.12;76.20
12757;BME280;31601;48.042;12.240;2023-04-03T02:22:24;96714.69;;;4.10;76.33
12757;BME280;31601;48.042;12.240;2023-04-03T02:24:52;96714.78;;;4.29;75.95
12757;BME280;31601;48.042;12.240;2023-04-03T02:27:18;96720.88;;;4.19;76.19
12757;BME280;31601;48.042;12.240;2023-04-03T02:29:45;96722.63;;;4.08;76.52
12757;BME280;31601;48.042;12.240;2023-04-03T02:32:11;96719.91;;;4.20;76.17
12757;BME280;31601;48.042;12.240;2023-04-03T02:34:37;96723.09;;;3.92;76.24
12757;BME280;31601;48.042;12.240;2023-04-03T02:37:04;96719.41;;;3.95;76.18
12757;BME280;31601;48.042;12.240;2023-04-03T02:39:31;96719.53;;;3.93;76.75
12757;BME280;31601;48.042;12.240;2023-04-03T02:41:59;96711.56;;;3.75;76.84
12757;BME280;31601;48.042;12.240;2023-04-03T02:44:25;96710.78;;;3.85;76.70
12757;BME280;31601;48.042;12.240;2023-04-03T02:46:52;96714.22;;;3.64;76.67
12757;BME280;31601;48.042;12.240;2023-04-03T02:49:18;96715.53;;;3.80;76.32
12757;BME280;31601;48.042;12.240;2023-04-03T02:51:45;96718.44;;;3.86;76.75
12757;BME280;31601;48.042;12.240;2023-04-03T02:54:12;96712.00;;;3.90;76.23
12757;BME280;31601;48.042;12.240;2023-04-03T02:56:39;96714.97;;;3.55;76.87
12757;BME280;31601;48.042;12.240;2023-04-03T02:59:07;96719.16;;;3.98;76.38
12757;BME280;31601;48.042;12.240;2023-04-03T03:01:33;96718.03;;;3.60;77.09
12757;BME280;31601;48.042;12.240;2023-04-03T03:04:00;96725.44;;;3.65;76.77
12757;BME280;31601;48.042;12.240;2023-04-03T03:06:27;96724.84;;;3.61;77.04
12757;BME280;31601;48.042;12.240;2023-04-03T03:08:53;96717.44;;;3.56;77.37
12757;BME280;31601;48.042;12.240;2023-04-03T03:11:20;96724.00;;;3.51;77.03
12757;BME280;31601;48.042;12.240;2023-04-03T03:13:47;96724.16;;;3.59;76.56
12757;BME280;31601;48.042;12.240;2023-04-03T03:16:14;96726.50;;;3.62;76.88
12757;BME280;31601;48.042;12.240;2023-04-03T03:18:41;96736.00;;;3.52;76.76
12757;BME280;31601;48.042;12.240;2023-04-03T03:21:09;96717.94;;;3.71;76.47
12757;BME280;31601;48.042;12.240;2023-04-03T03:23:36;96721.19;;;3.64;76.49
12757;BME280;31601;48.042;12.240;2023-04-03T03:26:05;96715.88;;;3.65;76.89
12757;BME280;31601;48.042;12.240;2023-04-03T03:28:32;96717.84;;;3.83;76.00
12757;BME280;31601;48.042;12.240;2023-04-03T03:30:58;96717.00;;;3.72;75.74
12757;BME280;31601;48.042;12.240;2023-04-03T03:33:26;96712.47;;;3.65;76.03
12757;BME280;31601;48.042;12.240;2023-04-03T03:35:53;96718.75;;;3.72;76.10
12757;BME280;31601;48.042;12.240;2023-04-03T03:38:20;96717.94;;;3.71;76.00
12757;BME280;31601;48.042;12.240;2023-04-03T03:40:46;96707.97;;;3.46;76.49
12757;BME280;31601;48.042;12.240;2023-04-03T03:43:13;96717.94;;;3.71;76.10
12757;BME280;31601;48.042;12.240;2023-04-03T03:45:40;96722.13;;;3.63;76.00
12757;BME280;31601;48.042;12.240;2023-04-03T03:48:06;96715.34;;;3.71;75.44
12757;BME280;31601;48.042;12.240;2023-04-03T03:50:34;96719.38;;;3.85;75.88
12757;BME280;31601;48.042;12.240;2023-04-03T03:53:00;96714.03;;;3.77;75.92
12757;BME280;31601;48.042;12.240;2023-04-03T03:55:27;96713.53;;;3.93;75.35
12757;BME280;31601;48.042;12.240;2023-04-03T03:57:53;96718.47;;;3.96;75.22
12757;BME280;31601;48.042;12.240;2023-04-03T04:00:20;96721.47;;;3.91;75.24
12757;BME280;31601;48.042;12.240;2023-04-03T04:02:46;96716.13;;;3.93;75.08
12757;BME280;31601;48.042;12.240;2023-04-03T04:05:13;96718.72;;;3.93;75.52
12757;BME280;31601;48.042;12.240;2023-04-03T04:07:41;96723.66;;;3.96;75.15
12757;BME280;31601;48.042;12.240;2023-04-03T04:10:08;96724.69;;;3.84;75.51
12757;BME280;31601;48.042;12.240;2023-04-03T04:12:35;96725.13;;;3.89;75.41
12757;BME280;31601;48.042;12.240;2023-04-03T04:15:01;96727.81;;;3.78;75.01
12757;BME280;31601;48.042;12.240;2023-04-03T04:17:28;96724.41;;;3.77;75.14
12757;BME280;31601;48.042;12.240;2023-04-03T04:19:54;96724.97;;;3.81;75.05
12757;BME280;31601;48.042;12.240;2023-04-03T04:22:21;96722.53;;;3.89;74.78
12757;BME280;31601;48.042;12.240;2023-04-03T04:24:49;96727.16;;;3.85;75.06
12757;BME280;31601;48.042;12.240;2023-04-03T04:27:15;96725.84;;;3.91;75.04
12757;BME280;31601;48.042;12.240;2023-04-03T04:29:42;96722.84;;;3.96;74.62
12757;BME280;31601;48.042;12.240;2023-04-03T04:32:08;96717.16;;;4.11;74.25
12757;BME280;31601;48.042;12.240;2023-04-03T04:34:35;96727.72;;;3.89;75.07
12757;BME280;31601;48.042;12.240;2023-04-03T04:37:01;96724.28;;;4.09;74.45
12757;BME280;31601;48.042;12.240;2023-04-03T04:39:28;96726.81;;;4.00;74.88
12757;BME280;31601;48.042;12.240;2023-04-03T04:41:55;96727.16;;;3.85;75.07
12757;BME280;31601;48.042;12.240;2023-04-03T04:44:22;96725.31;;;3.97;73.99
12757;BME280;31601;48.042;12.240;2023-04-03T04:46:48;96730.19;;;3.90;74.84
12757;BME280;31601;48.042;12.240;2023-04-03T04:49:15;96723.94;;;3.72;74.94
12757;BME280;31601;48.042;12.240;2023-04-03T04:51:41;96729.47;;;3.57;75.79
12757;BME280;31601;48.042;12.240;2023-04-03T04:54:08;96737.25;;;3.79;75.06
12757;BME280;31601;48.042;12.240;2023-04-03T04:56:34;96730.16;;;3.81;75.44
12757;BME280;31601;48.042;12.240;2023-04-03T04:59:02;96727.69;;;3.58;75.29
12757;BME280;31601;48.042;12.240;2023-04-03T05:01:28;96730.50;;;3.66;75.36
12757;BME280;31601;48.042;12.240;2023-04-03T05:03:55;96732.00;;;3.69;75.07
12757;BME280;31601;48.042;12.240;2023-04-03T05:06:21;96742.56;;;3.77;75.38
12757;BME280;31601;48.042;12.240;2023-04-03T05:08:48;96739.38;;;3.73;75.42
12757;BME280;31601;48.042;12.240;2023-04-03T05:11:14;96738.16;;;3.47;74.78
12757;BME280;31601;48.042;12.240;2023-04-03T05:13:41;96737.63;;;3.74;74.39
12757;BME280;31601;48.042;12.240;2023-04-03T05:16:08;96742.63;;;3.66;73.94
12757;BME280;31601;48.042;12.240;2023-04-03T05:18:36;96744.06;;;3.80;73.65
12757;BME280;31601;48.042;12.240;2023-04-03T05:21:03;96749.50;;;3.76;72.92
12757;BME280;31601;48.042;12.240;2023-04-03T05:23:29;96747.50;;;3.59;73.30
12757;BME280;31601;48.042;12.240;2023-04-03T05:25:56;96751.94;;;3.68;72.91
12757;BME280;31601;48.042;12.240;2023-04-03T05:28:22;96750.09;;;3.59;72.27
12757;BME280;31601;48.042;12.240;2023-04-03T05:30:52;96750.78;;;3.82;72.23
12757;BME280;31601;48.042;12.240;2023-04-03T05:33:21;96756.50;;;3.55;72.44
12757;BME280;31601;48.042;12.240;2023-04-03T05:35:48;96750.09;;;3.80;71.96
12757;BME280;31601;48.042;12.240;2023-04-03T05:38:14;96756.63;;;3.53;72.13
12757;BME280;31601;48.042;12.240;2023-04-03T05:40:41;96759.91;;;3.76;71.53
12757;BME280;31601;48.042;12.240;2023-04-03T05:43:08;96751.03;;;3.79;71.71
12757;BME280;31601;48.042;12.240;2023-04-03T05:45:34;96753.09;;;3.75;71.64
12757;BME280;31601;48.042;12.240;2023-04-03T05:48:01;96760.34;;;3.82;71.52
12757;BME280;31601;48.042;12.240;2023-04-03T05:50:29;96757.50;;;3.85;71.40
12757;BME280;31601;48.042;12.240;2023-04-03T05:52:57;96762.78;;;4.04;70.63
12757;BME280;31601;48.042;12.240;2023-04-03T05:55:24;96761.69;;;4.07;70.52
12757;BME280;31601;48.042;12.240;2023-04-03T05:57:50;96761.66;;;4.28;70.12
12757;BME280;31601;48.042;12.240;2023-04-03T06:00:17;96765.84;;;3.88;71.02
12757;BME280;31601;48.042;12.240;2023-04-03T06:02:44;96773.19;;;3.83;71.22
12757;BME280;31601;48.042;12.240;2023-04-03T06:05:10;96773.25;;;3.93;70.79
12757;BME280;31601;48.042;12.240;2023-04-03T06:07:39;96772.84;;;3.98;71.39
12757;BME280;31601;48.042;12.240;2023-04-03T06:10:07;96777.16;;;4.08;71.35
12757;BME280;31601;48.042;12.240;2023-04-03T06:12:33;96769.75;;;3.83;71.07
12757;BME280;31601;48.042;12.240;2023-04-03T06:15:00;96771.34;;;3.95;70.57
12757;BME280;31601;48.042;12.240;2023-04-03T06:17:27;96772.50;;;4.12;70.41
12757;BME280;31601;48.042;12.240;2023-04-03T06:19:54;96777.91;;;4.30;69.69
12757;BME280;31601;48.042;12.240;2023-04-03T06:22:23;96775.88;;;4.03;69.82
12757;BME280;31601;48.042;12.240;2023-04-03T06:24:52;96777.19;;;3.66;70.60
12757;BME280;31601;48.042;12.240;2023-04-03T06:27:18;96774.13;;;4.03;69.99
12757;BME280;31601;48.042;12.240;2023-04-03T06:29:45;96778.88;;;3.98;69.62
12757;BME280;31601;48.042;12.240;2023-04-03T06:32:11;96778.34;;;4.04;69.57
12757;BME280;31601;48.042;12.240;2023-04-03T06:34:38;96783.00;;;4.32;69.05
12757;BME280;31601;48.042;12.240;2023-04-03T06:37:04;96781.56;;;4.18;69.00
12757;BME280;31601;48.042;12.240;2023-04-03T06:39:31;96780.31;;;4.12;69.22
12757;BME280;31601;48.042;12.240;2023-04-03T06:41:59;96775.94;;;4.43;68.44
12757;BME280;31601;48.042;12.240;2023-04-03T06:44:25;96780.63;;;4.19;68.20
12757;BME280;31601;48.042;12.240;2023-04-03T06:46:51;96785.28;;;4.25;68.21
12757;BME280;31601;48.042;12.240;2023-04-03T06:49:19;96790.53;;;4.44;68.25
12757;BME280;31601;48.042;12.240;2023-04-03T06:51:46;96789.34;;;4.18;67.83
12757;BME280;31601;48.042;12.240;2023-04-03T06:54:13;96793.97;;;4.45;68.27
12757;BME280;31601;48.042;12.240;2023-04-03T06:56:40;96798.53;;;4.53;68.27
12757;BME280;31601;48.042;12.240;2023-04-03T06:59:09;96789.63;;;3.93;68.29
12757;BME280;31601;48.042;12.240;2023-04-03T07:01:35;96795.72;;;4.04;68.34
12757;BME280;31601;48.042;12.240;2023-04-03T07:04:02;96800.09;;;4.03;68.24
12757;BME280;31601;48.042;12.240;2023-04-03T07:06:29;96801.84;;;4.34;67.83
12757;BME280;31601;48.042;12.240;2023-04-03T07:08:56;96807.06;;;4.74;66.71
12757;BME280;31601;48.042;12.240;2023-04-03T07:11:23;96804.13;;;4.48;66.73
12757;BME280;31601;48.042;12.240;2023-04-03T07:13:51;96807.59;;;4.68;66.72
12757;BME280;31601;48.042;12.240;2023-04-03T07:16:20;96809.53;;;4.86;67.02
12757;BME280;31601;48.042;12.240;2023-04-03T07:18:47;96807.94;;;4.54;66.24
12757;BME280;31601;48.042;12.240;2023-04-03T07:21:13;96809.09;;;4.30;65.84
12757;BME280;31601;48.042;12.240;2023-04-03T07:23:40;96813.50;;;4.39;66.79
12757;BME280;31601;48.042;12.240;2023-04-03T07:26:06;96813.94;;;4.44;66.25
12757;BME280;31601;48.042;12.240;2023-04-03T07:28:34;96818.31;;;4.44;65.88
12757;BME280;31601;48.042;12.240;2023-04-03T07:31:03;96821.06;;;4.52;66.12
12757;BME280;31601;48.042;12.240;2023-04-03T07:33:32;96819.88;;;4.66;65.42
12757;BME280;31601;48.042;12.240;2023-04-03T07:35:58;96819.22;;;4.33;65.76
12757;BME280;31601;48.042;12.240;2023-04-03T07:38:25;96821.06;;;4.52;64.57
12757;BME280;31601;48.042;12.240;2023-04-03T07:40:52;96832.50;;;4.40;65.37
12757;BME280;31601;48.042;12.240;2023-04-03T07:43:19;96829.72;;;4.53;65.60
12757;BME280;31601;48.042;12.240;2023-04-03T07:45:46;96830.81;;;4.60;65.40
12757;BME280;31601;48.042;12.240;2023-04-03T07:48:15;96832.13;;;4.44;65.74
12757;BME280;31601;48.042;12.240;2023-04-03T07:50:44;96829.78;;;4.41;65.09
12757;BME280;31601;48.042;12.240;2023-04-03T07:53:10;96831.19;;;4.24;65.96
12757;BME280;31601;48.042;12.240;2023-04-03T07:55:37;96829.63;;;4.33;66.25
12757;BME280;31601;48.042;12.240;2023-04-03T07:58:08;96829.09;;;4.39;65.80
12757;BME280;31601;48.042;12.240;2023-04-03T08:00:34;96833.50;;;4.48;65.74
12757;BME280;31601;48.042;12.240;2023-04-03T08:03:01;96828.13;;;4.71;65.44
12757;BME280;31601;48.042;12.240;2023-04-03T08:05:27;96832.69;;;4.48;65.81
12757;BME280;31601;48.042;12.240;2023-04-03T08:07:55;96833.53;;;4.58;65.45
12757;BME280;31601;48.042;12.240;2023-04-03T08:10:21;96829.13;;;4.90;65.60
12757;BME280;31601;48.042;12.240;2023-04-03T08:12:48;96836.22;;;4.88;65.56
12757;BME280;31601;48.042;12.240;2023-04-03T08:15:15;96830.81;;;5.10;64.41
12757;BME280;31601;48.042;12.240;2023-04-03T08:17:41;96840.41;;;5.19;65.10
12757;BME280;31601;48.042;12.240;2023-04-03T08:20:10;96840.53;;;4.68;64.68
12757;BME280;31601;48.042;12.240;2023-04-03T08:22:36;96842.16;;;5.09;63.90
12757;BME280;31601;48.042;12.240;2023-04-03T08:25:05;96841.88;;;5.12;63.96
12757;BME280;31601;48.042;12.240;2023-04-03T08:27:31;96844.72;;;4.90;63.75
12757;BME280;31601;48.042;12.240;2023-04-03T08:29:58;96840.00;;;5.14;64.00
12757;BME280;31601;48.042;12.240;2023-04-03T08:32:25;96842.75;;;5.52;63.55
12757;BME280;31601;48.042;12.240;2023-04-03T08:34:52;96840.56;;;5.57;62.48
12757;BME280;31601;48.042;12.240;2023-04-03T08:37:19;96846.56;;;5.48;62.88
12757;BME280;31601;48.042;12.240;2023-04-03T08:39:45;96838.09;;;5.75;63.38
12757;BME280;31601;48.042;12.240;2023-04-03T08:42:19;96845.50;;;5.50;62.85
12757;BME280;31601;48.042;12.240;2023-04-03T08:44:57;96852.81;;;5.06;64.22
12757;BME280;31601;48.042;12.240;2023-04-03T08:47:29;96850.94;;;5.08;63.85
12757;BME280;31601;48.042;12.240;2023-04-03T08:50:04;96847.09;;;5.12;65.01
12757;BME280;31601;48.042;12.240;2023-04-03T08:52:36;96846.03;;;5.64;64.52
12757;BME280;31601;48.042;12.240;2023-04-03T08:55:06;96857.28;;;4.84;64.02
12757;BME280;31601;48.042;12.240;2023-04-03T08:57:39;96861.97;;;4.91;64.12
12757;BME280;31601;48.042;12.240;2023-04-03T09:00:16;96858.72;;;4.58;64.98
12757;BME280;31601;48.042;12.240;2023-04-03T09:02:44;96862.09;;;4.48;65.48
12757;BME280;31601;48.042;12.240;2023-04-03T09:05:14;96859.72;;;4.66;65.49
12757;BME280;31601;48.042;12.240;2023-04-03T09:07:44;96860.41;;;4.78;65.59
12757;BME280;31601;48.042;12.240;2023-04-03T09:10:13;96859.69;;;5.07;65.26
12757;BME280;31601;48.042;12.240;2023-04-03T09:12:44;96860.75;;;5.05;65.35
12757;BME280;31601;48.042;12.240;2023-04-03T09:15:18;96863.06;;;4.88;65.41
12757;BME280;31601;48.042;12.240;2023-04-03T09:17:55;96863.91;;;4.58;66.07
12757;BME280;31601;48.042;12.240;2023-04-03T09:20:30;96861.34;;;4.68;66.70
12757;BME280;31601;48.042;12.240;2023-04-03T09:23:09;96865.03;;;5.15;65.74
12757;BME280;31601;48.042;12.240;2023-04-03T09:25:40;96864.28;;;4.94;64.85
12757;BME280;31601;48.042;12.240;2023-04-03T09:28:08;96866.16;;;5.23;64.78
12757;BME280;31601;48.042;12.240;2023-04-03T09:30:36;96866.81;;;5.25;65.28
12757;BME280;31601;48.042;12.240;2023-04-03T09:33:03;96871.34;;;5.32;64.23
12757;BME280;31601;48.042;12.240;2023-04-03T09:35:32;96859.44;;;5.59;64.10
12757;BME280;31601;48.042;12.240;2023-04-03T09:37:59;96864.25;;;5.64;62.59
12757;BME280;31601;48.042;12.240;2023-04-03T09:40:32;96865.75;;;5.86;62.11
12757;BME280;31601;48.042;12.240;2023-04-03T09:43:02;96857.47;;;6.30;62.07
12757;BME280;31601;48.042;12.240;2023-04-03T09:45:31;96863.69;;;6.19;60.60
12757;BME280;31601;48.042;12.240;2023-04-03T09:48:06;96862.47;;;6.03;60.55
12757;BME280;31601;48.042;12.240;2023-04-03T09:50:34;96857.53;;;6.57;59.71
12757;BME280;31601;48.042;12.240;2023-04-03T09:53:05;96855.72;;;7.13;59.18
12757;BME280;31601;48.042;12.240;2023-04-03T09:55:32;96856.88;;;6.83;58.35
12757;BME280;31601;48.042;12.240;2023-04-03T09:58:00;96852.53;;;7.02;56.90
12757;BME280;31601;48.042;12.240;2023-04-03T10:00:33;96854.63;;;7.16;56.07
12757;BME280;31601;48.042;12.240;2023-04-03T10:03:00;96853.44;;;7.28;56.06
12757;BME280;31601;48.042;12.240;2023-04-03T10:05:33;96848.06;;;7.12;56.25
12757;BME280;31601;48.042;12.240;2023-04-03T10:08:20;96846.03;;;6.78;56.05
12757;BME280;31601;48.042;12.240;2023-04-03T10:11:05;96845.88;;;7.07;55.99
12757;BME280;31601;48.042;12.240;2023-04-03T10:13:34;96845.75;;;6.81;56.44
12757;BME280;31601;48.042;12.240;2023-04-03T10:16:06;96851.41;;;6.39;57.69
12757;BME280;31601;48.042;12.240;2023-04-03T10:18:40;96855.88;;;5.70;58.58
12757;BME280;31601;48.042;12.240;2023-04-03T10:21:11;96850.13;;;6.05;58.31
12757;BME280;31601;48.042;12.240;2023-04-03T10:23:44;96847.81;;;6.50;57.25
12757;BME280;31601;48.042;12.240;2023-04-03T10:26:29;96853.41;;;6.65;57.99
12757;BME280;31601;48.042;12.240;2023-04-03T10:29:04;96842.03;;;6.84;58.15
12757;BME280;31601;48.042;12.240;2023-04-03T10:31:37;96853.50;;;6.25;56.85
12757;BME280;31601;48.042;12.240;2023-04-03T10:34:18;96853.56;;;5.77;55.04
12757;BME280;31601;48.042;12.240;2023-04-03T10:36:51;96850.00;;;5.78;55.23
12757;BME280;31601;48.042;12.240;2023-04-03T10:39:23;96844.94;;;5.86;56.38
12757;BME280;31601;48.042;12.240;2023-04-03T10:42:02;96848.91;;;6.00;57.29
12757;BME280;31601;48.042;12.240;2023-04-03T10:44:36;96849.56;;;6.21;57.79
12757;BME280;31601;48.042;12.240;2023-04-03T10:47:12;96846.03;;;6.03;55.89
12757;BME280;31601;48.042;12.240;2023-04-03T10:49:51;96847.91;;;6.20;56.29
12757;BME280;31601;48.042;12.240;2023-04-03T10:52:22;96847.78;;;6.02;57.19
12757;BME280;31601;48.042;12.240;2023-04-03T10:54:59;96847.94;;;5.62;60.58
12757;BME280;31601;48.042;12.240;2023-04-03T10:57:28;96861.75;;;5.23;63.12
12757;BME280;31601;48.042;12.240;2023-04-03T10:59:57;96849.22;;;4.88;63.96
12757;BME280;31601;48.042;12.240;2023-04-03T11:02:28;96850.03;;;4.47;65.32
12757;BME280;31601;48.042;12.240;2023-04-03T11:04:59;96853.53;;;4.06;66.43
12757;BME280;31601;48.042;12.240;2023-04-03T11:07:29;96854.91;;;4.31;66.36
12757;BME280;31601;48.042;12.240;2023-04-03T11:10:02;96855.34;;;4.36;65.22
12757;BME280;31601;48.042;12.240;2023-04-03T11:12:36;96853.50;;;4.58;65.28
12757;BME280;31601;48.042;12.240;2023-04-03T11:15:05;96848.19;;;4.59;64.02
12757;BME280;31601;48.042;12.240;2023-04-03T11:17:41;96855.75;;;4.72;64.35
12757;BME280;31601;48.042;12.240;2023-04-03T11:20:17;96854.91;;;4.62;63.59
12757;BME280;31601;48.042;12.240;2023-04-03T11:22:47;96854.81;;;4.83;63.02
12757;BME280;31601;48.042;12.240;2023-04-03T11:25:19;96842.13;;;4.90;61.33
12757;BME280;31601;48.042;12.240;2023-04-03T11:27:51;96850.41;;;5.14;60.59
12757;BME280;31601;48.042;12.240;2023-04-03T11:30:21;96846.84;;;5.25;60.87
12757;BME280;31601;48.042;12.240;2023-04-03T11:35:59;96843.41;;;5.25;57.23
12757;BME280;31601;48.042;12.240;2023-04-03T11:38:30;96851.59;;;5.00;55.82
12757;BME280;31601;48.042;12.240;2023-04-03T11:41:01;96840.53;;;5.28;55.55
12757;BME280;31601;48.042;12.240;2023-04-03T11:43:29;96837.66;;;5.11;55.43
12757;BME280;31601;48.042;12.240;2023-04-03T11:45:58;96835.91;;;5.41;55.59
12757;BME280;31601;48.042;12.240;2023-04-03T11:48:47;96835.06;;;5.60;53.73
12757;BME280;31601;48.042;12.240;2023-04-03T11:51:47;96830.63;;;6.19;53.75
12757;BME280;31601;48.042;12.240;2023-04-03T11:57:44;96835.59;;;5.83;52.42
12757;BME280;31601;48.042;12.240;2023-04-03T12:00:46;96820.94;;;5.82;53.53
12757;BME280;31601;48.042;12.240;2023-04-03T12:09:25;96818.19;;;6.51;51.51
12757;BME280;31601;48.042;12.240;2023-04-03T12:11:52;96813.44;;;6.64;50.67
12757;BME280;31601;48.042;12.240;2023-04-03T12:14:21;96808.66;;;6.59;52.09
12757;BME280;31601;48.042;12.240;2023-04-03T12:16:49;96809.25;;;7.45;51.19
12757;BME280;31601;48.042;12.240;2023-04-03T12:19:33;96810.09;;;6.99;51.32
12757;BME280;31601;48.042;12.240;2023-04-03T12:22:23;96809.81;;;7.21;50.46
12757;BME280;31601;48.042;12.240;2023-04-03T12:24:52;96807.47;;;6.99;49.81
12757;BME280;31601;48.042;12.240;2023-04-03T12:27:28;96814.56;;;6.24;49.06
12757;BME280;31601;48.042;12.240;2023-04-03T12:30:00;96801.59;;;5.85;49.55
12757;BME280;31601;48.042;12.240;2023-04-03T12:32:42;96800.72;;;6.23;50.80
12757;BME280;31601;48.042;12.240;2023-04-03T12:35:20;96795.00;;;6.10;50.01
12757;BME280;31601;48.042;12.240;2023-04-03T12:38:02;96798.56;;;6.47;50.48
12757;BME280;31601;48.042;12.240;2023-04-03T12:40:43;96799.63;;;6.16;47.82
12757;BME280;31601;48.042;12.240;2023-04-03T12:43:25;96799.13;;;5.93;47.45
12757;BME280;31601;48.042;12.240;2023-04-03T12:45:58;96793.97;;;6.31;48.72
12757;BME280;31601;48.042;12.240;2023-04-03T12:48:30;96803.94;;;5.98;47.47
12757;BME280;31601;48.042;12.240;2023-04-03T12:50:58;96796.44;;;6.32;48.13
12757;BME280;31601;48.042;12.240;2023-04-03T12:53:26;96786.31;;;6.57;47.08
12757;BME280;31601;48.042;12.240;2023-04-03T12:55:58;96787.91;;;6.40;47.00
12757;BME280;31601;48.042;12.240;2023-04-03T12:58:44;96783.00;;;6.65;46.61
12757;BME280;31601;48.042;12.240;2023-04-03T13:01:13;96782.78;;;6.48;47.67
12757;BME280;31601;48.042;12.240;2023-04-03T13:03:45;96778.28;;;6.96;45.81
12757;BME280;31601;48.042;12.240;2023-04-03T13:06:17;96775.25;;;7.63;46.31
12757;BME280;31601;48.042;12.240;2023-04-03T13:08:49;96779.31;;;7.21;45.82
12757;BME280;31601;48.042;12.240;2023-04-03T13:11:18;96782.19;;;7.28;43.82
12757;BME280;31601;48.042;12.240;2023-04-03T13:13:57;96771.97;;;7.79;42.80
12757;BME280;31601;48.042;12.240;2023-04-03T13:16:23;96757.91;;;7.53;43.23
12757;BME280;31601;48.042;12.240;2023-04-03T13:18:52;96761.06;;;7.39;43.02
12757;BME280;31601;48.042;12.240;2023-04-03T13:21:21;96763.50;;;7.41;43.70
12757;BME280;31601;48.042;12.240;2023-04-03T13:23:51;96754.75;;;7.94;41.68
12757;BME280;31601;48.042;12.240;2023-04-03T13:26:22;96755.09;;;7.99;42.23